Latest Weather Observations for Parkes Airport

IDN60801

Issued at 8:04 am EDT Saturday 28 February 2015 (issued every 30 minutes, with the page automatically refreshed every 10 minutes)

About weather observations | Map of weather stations | Latest weather observations for NSW | Other Formats
Station Details ID: 065068 Name: PARKES AIRPORT AWS Lat: -33.13 Lon: 148.24 Height: 323.3 m
Data from the previous 72 hours. | See also: Recent months at Parkes Airport
Date/Time
EDT
Temp
°C
App
Temp
°C
Dew
Point
Rel
Hum
%
Delta-T
°C
Wind Press
QNH
hPa
Press
MSL
hPa
Rain
since 9 am
mm
Dir
 
Spd
km/h
Gust
km/h
Spd
kts
Gust
kts
28/08:00am 22.5 23.4 15.1 63 4.5 E 4 9 2 5 1010.0 1008.3 0.0
28/07:30am 21.9 21.4 14.8 64 4.3 E 11 15 6 8 1009.7 1007.9 0.0
28/07:00am 21.1 19.9 15.0 68 3.7 E 15 19 8 10 1009.6 1007.8 0.0
28/06:30am 21.7 20.2 15.3 67 3.9 ENE 17 20 9 11 1009.6 1007.8 0.0
28/06:00am 21.0 19.3 14.6 67 3.8 ENE 17 20 9 11 1009.3 1007.5 0.0
28/05:30am 21.6 19.6 15.0 66 4.0 ENE 19 22 10 12 1008.9 1007.1 0.0
28/05:00am 20.9 20.2 14.3 66 3.9 E 11 15 6 8 1008.8 1007.0 0.0
28/04:30am 20.4 19.8 13.6 65 4.0 E 9 13 5 7 1008.7 1006.9 0.0
28/04:00am 21.5 19.8 13.7 61 4.6 ENE 15 20 8 11 1008.6 1006.8 0.0
28/03:30am 22.6 21.0 13.9 58 5.1 NE 15 20 8 11 1008.7 1006.9 0.0
28/03:00am 22.3 21.0 13.6 58 5.1 ENE 13 17 7 9 1008.8 1007.0 0.0
28/02:30am 20.2 19.5 11.9 59 4.7 E 7 9 4 5 1008.9 1007.1 0.0
28/02:00am 20.5 18.2 10.6 53 5.5 NNE 13 17 7 9 1009.1 1007.3 0.0
28/01:30am 18.6 17.0 8.8 53 5.2 N 7 9 4 5 1009.4 1007.6 0.0
28/01:00am 18.6 15.4 8.6 52 5.3 NE 15 28 8 15 1009.5 1007.7 0.0
28/12:30am 19.3 17.2 8.3 49 5.8 NE 9 9 5 5 1009.2 1007.4 0.0
28/12:00am 18.6 16.0 7.7 49 5.7 NE 11 13 6 7 1009.3 1007.5 0.0
 
Date/Time
EDT
Temp
°C
App
Temp
°C
Dew
Point
Rel
Hum
%
Delta-T
°C
Wind Press
QNH
hPa
Press
MSL
hPa
Rain
since 9 am
mm
Dir
 
Spd
km/h
Gust
km/h
Spd
kts
Gust
kts
27/11:30pm 20.8 18.2 7.8 43 6.8 NE 11 13 6 7 1009.3 1007.5 0.0
27/11:00pm 20.6 18.0 7.9 44 6.7 ENE 11 13 6 7 1009.4 1007.6 0.0
27/10:30pm 20.6 18.1 6.5 40 7.2 NE 9 9 5 5 1009.3 1007.5 0.0
27/10:00pm 21.5 18.7 7.0 39 7.6 E 11 13 6 7 1009.3 1007.5 0.0
27/09:30pm 22.9 20.5 7.0 36 8.3 NE 9 11 5 6 1009.0 1007.2 0.0
27/09:00pm 23.0 20.6 5.4 32 9.0 SE 7 11 4 6 1008.8 1007.0 0.0
27/08:30pm 26.3 23.6 5.8 27 10.7 S 9 11 5 6 1008.3 1006.5 0.0
27/08:00pm 27.2 24.5 5.5 25 11.4 SSW 9 11 5 6 1007.8 1006.0 0.0
27/07:30pm 29.5 26.0 5.6 22 12.7 SSW 13 19 7 10 1007.4 1005.7 0.0
27/07:00pm 31.0 27.7 4.7 19 13.9 SW 11 17 6 9 1007.1 1005.4 0.0
27/06:30pm 31.6 28.2 5.9 20 13.9 SSW 13 17 7 9 1007.0 1005.2 0.0
27/06:00pm 32.8 28.9 6.9 20 14.4 SW 17 28 9 15 1007.0 1005.2 0.0
27/05:30pm 33.0 29.5 7.1 20 14.4 SW 15 28 8 15 1006.9 1005.1 0.0
27/05:00pm 33.0 29.3 7.8 21 14.2 NW 17 20 9 11 1006.9 1005.1 0.0
27/04:30pm 32.5 30.6 7.4 21 14.0 SW 7 17 4 9 1007.1 1005.4 0.0
27/04:00pm 32.0 29.7 7.6 22 13.6 W 9 15 5 8 1007.3 1005.6 0.0
27/03:30pm 32.3 29.9 8.5 23 13.5 W 11 20 6 11 1007.6 1005.8 0.0
27/03:00pm 32.0 29.1 8.3 23 13.4 WNW 13 24 7 13 1008.2 1006.4 0.0
27/02:30pm 30.9 28.6 7.4 23 13.0 WNW 9 17 5 9 1008.5 1006.7 0.0
27/02:00pm 31.5 29.1 10.2 27 12.4 W 13 28 7 15 1008.9 1007.1 0.0
27/01:30pm 30.7 29.4 11.1 30 11.5 W 9 22 5 12 1009.3 1007.5 0.0
27/01:00pm 29.7 29.1 11.7 33 10.6 SW 6 20 3 11 1009.7 1007.9 0.0
27/12:30pm 29.0 28.0 12.4 36 9.8 WSW 9 15 5 8 1010.1 1008.4 0.0
27/12:00pm 28.6 27.0 11.6 34 9.9 NW 11 17 6 9 1010.8 1009.0 0.0
27/11:30am 28.4 28.1 12.7 38 9.3 N 6 13 3 7 1010.9 1009.1 0.0
27/11:00am 27.1 25.1 12.7 41 8.5 NE 15 22 8 12 1011.0 1009.2 0.0
27/10:30am 26.7 25.1 12.7 42 8.3 NNE 13 20 7 11 1010.9 1009.1 0.0
27/10:00am 26.3 23.9 12.7 43 8.0 NNE 17 22 9 12 1010.9 1009.1 0.0
27/09:30am 25.5 23.5 12.7 45 7.5 NE 15 20 8 11 1010.6 1008.9 0.0
27/09:00am 23.8 22.9 13.6 52 6.0 ENE 11 15 6 8 1010.9 1009.1 0.0
27/08:30am 21.7 20.3 13.3 59 4.9 ENE 13 17 7 9 1010.5 1008.8 0.0
27/08:00am 18.1 19.1 13.2 73 2.8 CALM 0 7 0 4 1010.3 1008.6 0.0
27/07:30am 15.0 14.4 11.8 81 1.8 NNE 6 7 3 4 1010.0 1008.3 0.0
27/07:00am 13.8 13.3 10.8 82 1.6 NNE 4 6 2 3 1009.6 1007.8 0.0
27/06:30am 14.0 12.9 10.6 80 1.8 ENE 7 9 4 5 1009.1 1007.3 0.0
27/06:00am 14.3 12.5 10.9 80 1.8 E 11 13 6 7 1008.6 1006.8 0.0
27/05:30am 15.3 14.1 11.5 78 2.1 ENE 9 9 5 5 1008.5 1006.7 0.0
27/05:00am 15.5 14.6 11.5 77 2.2 NE 7 9 4 5 1008.6 1006.8 0.0
27/04:30am 15.2 14.3 10.6 74 2.5 SSE 6 7 3 4 1008.6 1006.8 0.0
27/04:00am 16.2 16.1 10.9 71 2.9 S 2 6 1 3 1008.6 1006.8 0.0
27/03:30am 16.6 15.5 10.7 68 3.2 E 7 11 4 6 1008.8 1007.0 0.0
27/03:00am 17.5 15.3 10.9 65 3.6 ENE 13 15 7 8 1008.9 1007.1 0.0
27/02:30am 17.8 16.1 11.1 65 3.7 ENE 11 11 6 6 1009.0 1007.2 0.0
27/02:00am 17.2 15.1 9.9 62 3.9 ENE 11 15 6 8 1009.0 1007.2 0.0
27/01:30am 18.1 17.6 9.2 56 4.7 NE 2 9 1 5 1009.0 1007.2 0.0
27/01:00am 18.4 17.6 9.5 56 4.8 N 4 7 2 4 1009.1 1007.3 0.0
27/12:30am 18.5 18.4 9.3 55 4.9 CALM 0 0 0 0 1009.1 1007.3 0.0
27/12:00am 18.3 18.2 9.4 56 4.8 CALM 0 0 0 0 1009.1 1007.3 0.0
 
Date/Time
EDT
Temp
°C
App
Temp
°C
Dew
Point
Rel
Hum
%
Delta-T
°C
Wind Press
QNH
hPa
Press
MSL
hPa
Rain
since 9 am
mm
Dir
 
Spd
km/h
Gust
km/h
Spd
kts
Gust
kts
26/11:30pm 18.9 17.4 9.1 53 5.2 ENE 7 9 4 5 1009.0 1007.2 0.0
26/11:00pm 20.6 19.4 9.5 49 6.0 N 6 7 3 4 1008.9 1007.1 0.0
26/10:30pm 21.3 19.2 8.2 43 7.0 SW 9 9 5 5 1008.8 1007.0 0.0
26/10:00pm 23.3 20.3 9.3 41 7.7 SSE 15 17 8 9 1008.6 1006.8 0.0
26/09:30pm 24.7 21.3 9.0 37 8.6 SSE 17 19 9 10 1008.4 1006.6 0.0
26/09:00pm 24.9 21.9 9.2 37 8.7 SSE 15 17 8 9 1008.0 1006.2 0.0
26/08:30pm 25.1 22.1 7.7 33 9.4 S 13 15 7 8 1007.2 1005.5 0.0
26/08:00pm 26.0 22.5 7.1 30 10.1 SSW 15 17 8 9 1006.7 1004.9 0.0
26/07:30pm 28.4 23.9 7.1 26 11.5 SSW 20 26 11 14 1006.4 1004.6 0.0
26/07:00pm 29.3 24.4 8.4 27 11.7 SSW 24 32 13 17 1006.1 1004.3 0.0
26/06:30pm 30.0 25.8 8.4 26 12.1 SW 20 32 11 17 1005.8 1004.0 0.0
26/06:00pm 30.4 26.5 9.3 27 12.0 SSW 20 30 11 16 1005.5 1003.7 0.0
26/05:30pm 31.3 27.6 9.5 26 12.5 WSW 19 30 10 16 1005.5 1003.7 0.0
26/05:00pm 31.3 27.7 8.3 24 12.9 W 17 28 9 15 1005.6 1003.8 0.0
26/04:30pm 31.7 29.4 10.4 27 12.4 WSW 13 28 7 15 1005.6 1003.8 0.0
26/04:00pm 30.2 27.7 13.5 36 10.1 SW 19 28 10 15 1006.2 1004.4 0.0
26/03:30pm 31.0 29.3 12.4 32 11.1 W 13 22 7 12 1006.6 1004.8 0.0
26/03:00pm 29.2 28.7 15.0 42 8.8 W 11 20 6 11 1007.2 1005.5 0.0
26/02:30pm 28.4 27.9 16.0 47 7.8 WNW 13 19 7 10 1007.9 1006.1 0.0
26/02:00pm 29.1 28.7 16.3 46 8.1 W 13 26 7 14 1008.2 1006.4 0.0
26/01:30pm 27.6 26.3 15.9 49 7.3 NW 17 26 9 14 1008.2 1006.4 0.0
26/01:00pm 27.5 26.5 16.5 51 6.9 WNW 17 20 9 11 1008.7 1006.9 0.0
26/12:30pm 28.4 27.4 16.7 49 7.4 NW 17 26 9 14 1009.3 1007.5 0.0
26/12:00pm 27.6 26.6 16.6 51 6.9 NNW 17 30 9 16 1009.5 1007.7 0.0
26/11:30am 27.2 26.3 16.8 53 6.6 N 17 28 9 15 1009.8 1008.0 0.0
26/11:00am 25.1 23.3 16.0 57 5.6 N 20 30 11 16 1010.1 1008.4 0.0
26/10:30am 26.0 24.7 15.7 53 6.4 N 17 30 9 16 1010.5 1008.8 0.0
26/10:00am 24.0 22.7 15.8 60 5.0 NNE 17 22 9 12 1010.4 1008.7 0.0
26/09:30am 23.1 21.3 15.4 62 4.7 NNE 19 24 10 13 1010.5 1008.8 0.0
26/09:00am 22.3 22.0 15.4 65 4.2 NE 11 19 6 10 1010.4 1008.7 0.4
26/08:30am 20.6 20.3 15.4 72 3.1 NE 11 13 6 7 1010.4 1008.7 0.4
26/08:00am 19.6 19.7 15.5 77 2.5 ENE 9 11 5 6 1010.3 1008.6 0.4
26/07:30am 17.2 17.6 14.7 85 1.5 ENE 6 9 3 5 1010.3 1008.6 0.4
26/07:00am 17.1 16.7 14.2 83 1.7 SSW 9 11 5 6 1010.1 1008.4 0.4
26/06:30am 17.4 17.0 14.1 81 1.9 W 9 9 5 5 1009.9 1008.2 0.4
26/06:00am 17.3 16.9 14.2 82 1.8 W 9 11 5 6 1009.7 1007.9 0.4
26/05:30am 17.6 18.9 14.1 80 2.0 CALM 0 6 0 3 1009.3 1007.5 0.4
26/05:00am 18.0 17.9 13.9 77 2.4 WNW 7 11 4 6 1009.2 1007.4 0.4
26/04:30am 18.9 17.8 14.4 75 2.6 NE 13 15 7 8 1009.0 1007.2 0.4
26/04:00am 19.3 19.0 14.3 73 2.9 ENE 9 13 5 7 1009.4 1007.6 0.4
26/03:30am 20.0 18.3 14.6 71 3.2 ENE 17 20 9 11 1009.5 1007.7 0.4
26/03:00am 19.8 19.4 14.2 70 3.3 ENE 9 15 5 8 1009.7 1007.9 0.4
26/02:30am 19.7 18.9 14.1 70 3.3 ENE 11 17 6 9 1009.9 1008.2 0.4
26/02:00am 20.1 20.2 14.0 68 3.6 ESE 6 9 3 5 1010.1 1008.4 0.4
26/01:30am 20.6 19.3 13.6 64 4.1 ENE 13 20 7 11 1010.5 1008.8 0.4
26/01:00am 21.2 18.6 13.9 63 4.3 NNE 20 28 11 15 1010.9 1009.1 0.4
26/12:30am 20.8 19.1 13.5 63 4.3 NE 15 20 8 11 1011.2 1009.4 0.4
26/12:00am 21.3 18.3 13.7 62 4.5 NE 22 35 12 19 1011.4 1009.6 0.4
 
Date/Time
EDT
Temp
°C
App
Temp
°C
Dew
Point
Rel
Hum
%
Delta-T
°C
Wind Press
QNH
hPa
Press
MSL
hPa
Rain
since 9 am
mm
Dir
 
Spd
km/h
Gust
km/h
Spd
kts
Gust
kts
25/11:30pm 21.5 18.4 13.4 60 4.7 ENE 22 32 12 17 1011.4 1009.6 0.4
25/11:00pm 22.2 19.1 13.3 57 5.2 ENE 22 30 12 16 1011.3 1009.5 0.4
25/10:30pm 22.6 17.9 13.1 55 5.5 NE 30 39 16 21 1011.1 1009.3 0.4
25/10:00pm 23.1 20.3 13.3 54 5.8 NE 20 30 11 16 1011.0 1009.2 0.4
25/09:30pm 22.8 19.6 13.0 54 5.7 ENE 22 33 12 18 1010.8 1009.0 0.4
25/09:00pm 22.8 20.5 14.6 60 4.9 ENE 20 26 11 14 1010.5 1008.8 0.4
25/08:30pm 23.0 20.2 15.3 62 4.7 ENE 24 32 13 17 1010.3 1008.6 0.4
25/08:00pm 24.1 21.6 16.1 61 4.9 E 24 32 13 17 1010.2 1008.5 0.4
25/07:30pm 24.5 23.1 16.5 61 5.0 E 19 24 10 13 1010.0 1008.3 0.4
25/07:00pm 24.9 23.9 17.6 64 4.6 ENE 19 24 10 13 1009.4 1007.6 0.4
25/06:30pm 24.3 23.4 17.8 67 4.1 NNE 19 30 10 16 1009.2 1007.4 0.4
25/06:00pm 26.0 24.1 15.7 53 6.4 NNE 20 32 11 17 1008.9 1007.1 0.4
25/05:59pm 26.3 24.4 15.7 52 6.5 NE 20 30 11 16 1008.9 1007.1 0.4
25/05:30pm 31.3 27.7 15.3 38 10.0 ESE 28 37 15 20 1008.3 1006.5 0.4
25/05:24pm 31.5 28.8 15.5 38 10.0 SSE 24 37 13 20 1008.3 1006.5 0.4
25/05:00pm 32.3 32.6 14.9 35 10.9 NE 7 13 4 7 1008.4 1006.6 0.4
25/04:30pm 31.3 30.1 14.0 35 10.6 ENE 13 20 7 11 1008.9 1007.1 0.4
25/04:00pm 30.9 30.3 14.5 37 10.1 ESE 11 15 6 8 1009.6 1007.8 0.4
25/03:30pm 30.7 28.9 15.9 40 9.3 E 20 24 11 13 1010.3 1008.6 0.4
25/03:00pm 29.7 28.1 16.1 43 8.6 ENE 19 22 10 12 1010.9 1009.1 0.4
25/02:30pm 30.6 29.5 14.2 36 10.1 NNE 13 20 7 11 1011.4 1009.6 0.4
25/02:00pm 30.8 29.4 14.4 36 10.1 NNW 15 24 8 13 1012.0 1010.2 0.4
25/01:30pm 28.6 30.9 17.8 52 6.9 NNE 2 9 1 5 1012.6 1010.9 0.4
25/01:00pm 29.2 27.6 13.8 39 9.3 NE 15 20 8 11 1012.9 1011.2 0.0
25/12:30pm 29.2 27.2 13.8 39 9.3 NE 17 28 9 15 1013.5 1011.8 0.0
25/12:00pm 28.9 27.0 14.3 40 8.9 NNW 17 26 9 14 1014.2 1012.4 0.0
25/11:30am 27.4 25.1 14.1 44 8.0 NNE 19 30 10 16 1014.7 1012.9 0.0
25/11:00am 28.2 27.0 15.1 44 8.1 NNE 15 24 8 13 1014.8 1013.0 0.0
25/10:30am 26.5 25.1 14.6 48 7.2 NNE 15 24 8 13 1014.9 1013.1 0.0
25/10:00am 26.2 24.3 14.3 48 7.2 NE 17 22 9 12 1014.9 1013.1 0.0
25/09:30am 24.3 22.5 14.4 54 5.9 NE 17 24 9 13 1015.1 1013.3 0.0
25/09:00am 22.9 20.6 14.7 60 4.9 ENE 20 28 11 15 1014.7 1012.9 0.0
25/08:30am 22.7 20.3 14.3 59 5.0 ENE 20 30 11 16 1014.7 1012.9 0.0

Other Formats:

Comma delimited format used in spreadsheet applications
http://www.bom.gov.au/fwo/IDN60801/IDN60801.95717.axf

JavaScript Object Notation format (JSON) in row-major order
http://www.bom.gov.au/fwo/IDN60801/IDN60801.95717.json